Back to Top

Language: 

My Weather Underground Personal Weather Station Historical Data with Graphs...

Delerius Weather Station Historical Data
Daily Summary for December 16, 2017 Units:  English    Metric   Both
« Previous Day
Next Day »
Daily Weekly Monthly Yearly Custom
  High: Low: Average:
Temperature: 42.6 °F 27.9 °F 34.7 °F
Dew Point: 36.9 °F 26.4 °F 31.2 °F
Humidity: 95 % 78 % 87 %
Wind Speed: 9.0 mph 0.0 mph 4.1 mph
Wind Gust: 18.0 mph - -
Wind:- - WNW
Pressure: 30.20 in 29.87 in -
Precipitation: 0.00 in    
Historical Graphs
 
 
Tabular Data for December 16, 2017
Time Temperature Dew Point Pressure Wind Wind Speed Wind Gust Humidity Rainfall Rate (Hourly) solar Conditions
00:03 34.5 °F 30.5 °F 29.87 in WNW 7.0 mph 11.0 mph 85 % 0.00 in 0 W/m2
00:04 34.5 °F 30.5 °F 29.87 in WNW 6.0 mph 10.0 mph 85 % 0.00 in 0 W/m2
00:09 34.5 °F 30.5 °F 29.88 in WNW 7.0 mph 12.0 mph 85 % 0.00 in 0 W/m2
00:19 34.5 °F 30.2 °F 29.88 in WNW 5.0 mph 8.0 mph 84 % 0.00 in 0 W/m2
00:23 34.5 °F 30.2 °F 29.88 in WNW 6.0 mph 8.0 mph 84 % 0.00 in 0 W/m2
00:25 34.5 °F 30.2 °F 29.88 in WNW 6.0 mph 9.0 mph 84 % 0.00 in 0 W/m2
00:30 34.5 °F 30.2 °F 29.88 in WNW 7.0 mph 10.0 mph 84 % 0.00 in 0 W/m2
00:31 34.5 °F 30.2 °F 29.88 in WNW 6.0 mph 10.0 mph 84 % 0.00 in 0 W/m2
00:33 34.3 °F 30.0 °F 29.88 in WNW 6.0 mph 9.0 mph 84 % 0.00 in 0 W/m2
00:38 34.3 °F 30.0 °F 29.88 in WNW 6.0 mph 8.0 mph 84 % 0.00 in 0 W/m2
00:39 34.3 °F 30.0 °F 29.88 in WNW 5.0 mph 7.0 mph 84 % 0.00 in 0 W/m2
00:40 34.3 °F 30.0 °F 29.88 in WNW 5.0 mph 7.0 mph 84 % 0.00 in 0 W/m2
00:45 34.3 °F 30.0 °F 29.89 in WNW 6.0 mph 9.0 mph 84 % 0.00 in 0 W/m2
00:47 34.3 °F 30.0 °F 29.88 in NW 5.0 mph 9.0 mph 84 % 0.00 in 0 W/m2
00:52 34.3 °F 30.0 °F 29.89 in WNW 6.0 mph 11.0 mph 84 % 0.00 in 0 W/m2
00:53 34.3 °F 30.0 °F 29.89 in WNW 6.0 mph 11.0 mph 84 % 0.00 in 0 W/m2
00:56 34.3 °F 30.0 °F 29.89 in WNW 6.0 mph 10.0 mph 84 % 0.00 in 0 W/m2
00:58 34.3 °F 30.0 °F 29.89 in WNW 6.0 mph 10.0 mph 84 % 0.00 in 0 W/m2
01:03 34.3 °F 30.0 °F 29.89 in WNW 6.0 mph 10.0 mph 84 % 0.00 in 0 W/m2
01:06 34.5 °F 30.2 °F 29.89 in WNW 5.0 mph 9.0 mph 84 % 0.00 in 0 W/m2
01:07 34.5 °F 30.2 °F 29.89 in NW 5.0 mph 9.0 mph 84 % 0.00 in 0 W/m2
01:12 34.5 °F 30.2 °F 29.89 in NW 5.0 mph 8.0 mph 84 % 0.00 in 0 W/m2
01:17 34.7 °F 30.1 °F 29.90 in NW 6.0 mph 9.0 mph 83 % 0.00 in 0 W/m2
01:22 34.7 °F 30.1 °F 29.90 in NW 6.0 mph 12.0 mph 83 % 0.00 in 0 W/m2
01:23 34.7 °F 30.1 °F 29.90 in NW 5.0 mph 8.0 mph 83 % 0.00 in 0 W/m2
01:28 34.7 °F 30.1 °F 29.90 in NW 6.0 mph 9.0 mph 83 % 0.00 in 0 W/m2
01:29 34.7 °F 30.1 °F 29.90 in WNW 6.0 mph 10.0 mph 83 % 0.00 in 0 W/m2
01:34 34.5 °F 29.9 °F 29.90 in NW 6.0 mph 10.0 mph 83 % 0.00 in 0 W/m2
01:35 34.5 °F 29.9 °F 29.90 in NW 5.0 mph 9.0 mph 83 % 0.00 in 0 W/m2
01:40 34.5 °F 29.9 °F 29.90 in NW 6.0 mph 11.0 mph 83 % 0.00 in 0 W/m2
01:41 34.5 °F 29.9 °F 29.90 in NW 6.0 mph 11.0 mph 83 % 0.00 in 0 W/m2
01:46 34.3 °F 29.7 °F 29.90 in NW 5.0 mph 8.0 mph 83 % 0.00 in 0 W/m2
01:51 34.3 °F 29.7 °F 29.90 in WNW 5.0 mph 8.0 mph 83 % 0.00 in 0 W/m2
01:57 34.3 °F 29.7 °F 29.91 in NW 7.0 mph 10.0 mph 83 % 0.00 in 0 W/m2
01:59 34.3 °F 29.7 °F 29.91 in WNW 6.0 mph 9.0 mph 83 % 0.00 in 0 W/m2
02:04 34.3 °F 29.7 °F 29.91 in WNW 7.0 mph 10.0 mph 83 % 0.00 in 0 W/m2
02:05 34.3 °F 29.7 °F 29.91 in WNW 7.0 mph 10.0 mph 83 % 0.00 in 0 W/m2
02:12 34.3 °F 29.7 °F 29.91 in WNW 7.0 mph 13.0 mph 83 % 0.00 in 0 W/m2
02:14 34.3 °F 29.7 °F 29.91 in NW 8.0 mph 14.0 mph 83 % 0.00 in 0 W/m2
02:18 34.5 °F 29.9 °F 29.91 in WNW 8.0 mph 12.0 mph 83 % 0.00 in 0 W/m2
02:23 34.5 °F 29.9 °F 29.91 in WNW 8.0 mph 12.0 mph 83 % 0.00 in 0 W/m2
02:24 34.5 °F 29.9 °F 29.92 in WNW 7.0 mph 12.0 mph 83 % 0.00 in 0 W/m2
02:28 34.5 °F 29.9 °F 29.91 in WNW 9.0 mph 12.0 mph 83 % 0.00 in 0 W/m2
02:31 34.5 °F 29.9 °F 29.91 in WNW 7.0 mph 11.0 mph 83 % 0.00 in 0 W/m2
02:32 34.5 °F 29.9 °F 29.91 in WNW 7.0 mph 9.0 mph 83 % 0.00 in 0 W/m2
02:37 34.5 °F 29.9 °F 29.92 in WNW 7.0 mph 11.0 mph 83 % 0.00 in 0 W/m2
02:38 34.5 °F 29.9 °F 29.92 in WNW 6.0 mph 11.0 mph 83 % 0.00 in 0 W/m2
02:40 34.5 °F 29.9 °F 29.92 in NW 6.0 mph 9.0 mph 83 % 0.00 in 0 W/m2
02:45 34.3 °F 29.7 °F 29.92 in WNW 5.0 mph 8.0 mph 83 % 0.00 in 0 W/m2
02:50 34.3 °F 29.7 °F 29.92 in WNW 6.0 mph 9.0 mph 83 % 0.00 in 0 W/m2
02:52 34.3 °F 29.7 °F 29.92 in WNW 5.0 mph 9.0 mph 83 % 0.00 in 0 W/m2
02:57 34.3 °F 29.7 °F 29.92 in WNW 5.0 mph 8.0 mph 83 % 0.00 in 0 W/m2
03:00 34.2 °F 29.5 °F 29.92 in WNW 7.0 mph 10.0 mph 83 % 0.00 in 0 W/m2
03:05 34.2 °F 29.8 °F 29.93 in WNW 7.0 mph 13.0 mph 84 % 0.00 in 0 W/m2
03:07 34.2 °F 29.8 °F 29.92 in WNW 8.0 mph 12.0 mph 84 % 0.00 in 0 W/m2
03:14 34.2 °F 29.8 °F 29.93 in WNW 8.0 mph 12.0 mph 84 % 0.00 in 0 W/m2
03:19 34.2 °F 29.8 °F 29.93 in WNW 7.0 mph 11.0 mph 84 % 0.00 in 0 W/m2
03:22 34.2 °F 29.8 °F 29.93 in WNW 6.0 mph 10.0 mph 84 % 0.00 in 0 W/m2
03:25 34.2 °F 29.8 °F 29.93 in NW 6.0 mph 10.0 mph 84 % 0.00 in 0 W/m2
03:30 34.0 °F 29.7 °F 29.93 in WNW 7.0 mph 11.0 mph 84 % 0.00 in 0 W/m2
03:35 34.0 °F 29.7 °F 29.93 in WNW 6.0 mph 9.0 mph 84 % 0.00 in 0 W/m2
03:39 34.0 °F 29.7 °F 29.93 in WNW 5.0 mph 11.0 mph 84 % 0.00 in 0 W/m2
03:44 34.0 °F 29.7 °F 29.93 in WNW 6.0 mph 10.0 mph 84 % 0.00 in 0 W/m2
03:48 34.0 °F 29.7 °F 29.93 in WNW 6.0 mph 8.0 mph 84 % 0.00 in 0 W/m2
03:51 33.8 °F 29.5 °F 29.93 in WNW 6.0 mph 10.0 mph 84 % 0.00 in 0 W/m2
03:53 33.8 °F 29.5 °F 29.93 in WNW 5.0 mph 9.0 mph 84 % 0.00 in 0 W/m2
03:56 33.6 °F 29.3 °F 29.93 in WNW 6.0 mph 10.0 mph 84 % 0.00 in 0 W/m2
04:01 33.6 °F 29.3 °F 29.93 in WNW 7.0 mph 12.0 mph 84 % 0.00 in 0 W/m2
04:05 33.6 °F 29.3 °F 29.94 in WNW 7.0 mph 11.0 mph 84 % 0.00 in 0 W/m2
04:12 33.6 °F 29.3 °F 29.94 in WNW 7.0 mph 10.0 mph 84 % 0.00 in 0 W/m2
04:17 33.4 °F 29.1 °F 29.94 in WNW 8.0 mph 12.0 mph 84 % 0.00 in 0 W/m2
04:18 33.4 °F 29.1 °F 29.94 in WNW 8.0 mph 11.0 mph 84 % 0.00 in 0 W/m2
04:23 33.4 °F 29.1 °F 29.94 in WNW 6.0 mph 10.0 mph 84 % 0.00 in 0 W/m2
04:25 33.4 °F 29.1 °F 29.94 in WNW 6.0 mph 11.0 mph 84 % 0.00 in 0 W/m2
04:30 33.3 °F 28.9 °F 29.95 in WNW 7.0 mph 11.0 mph 84 % 0.00 in 0 W/m2
04:34 33.3 °F 29.2 °F 29.95 in WNW 7.0 mph 11.0 mph 85 % 0.00 in 0 W/m2
04:39 33.1 °F 29.1 °F 29.95 in WNW 7.0 mph 9.0 mph 85 % 0.00 in 0 W/m2
04:44 32.9 °F 28.9 °F 29.95 in WNW 6.0 mph 8.0 mph 85 % 0.00 in 0 W/m2
04:46 32.9 °F 28.9 °F 29.95 in WNW 5.0 mph 9.0 mph 85 % 0.00 in 0 W/m2
04:48 32.9 °F 28.9 °F 29.95 in WNW 6.0 mph 10.0 mph 85 % 0.00 in 0 W/m2
04:53 32.7 °F 28.7 °F 29.96 in WNW 6.0 mph 8.0 mph 85 % 0.00 in 0 W/m2
04:55 32.7 °F 28.7 °F 29.96 in WNW 5.0 mph 8.0 mph 85 % 0.00 in 0 W/m2
04:56 32.7 °F 28.7 °F 29.95 in WNW 5.0 mph 7.0 mph 85 % 0.00 in 0 W/m2
05:00 32.7 °F 28.7 °F 29.96 in WNW 6.0 mph 11.0 mph 85 % 0.00 in 0 W/m2
05:05 32.7 °F 28.7 °F 29.96 in WNW 5.0 mph 8.0 mph 85 % 0.00 in 0 W/m2
05:06 32.5 °F 28.5 °F 29.96 in WNW 5.0 mph 8.0 mph 85 % 0.00 in 0 W/m2
05:11 32.5 °F 28.5 °F 29.96 in WNW 5.0 mph 6.0 mph 85 % 0.00 in 0 W/m2
05:15 32.4 °F 28.4 °F 29.96 in WNW 5.0 mph 7.0 mph 85 % 0.00 in 0 W/m2
05:20 32.4 °F 28.6 °F 29.96 in WNW 5.0 mph 7.0 mph 86 % 0.00 in 0 W/m2
05:25 32.2 °F 28.5 °F 29.96 in WNW 4.0 mph 7.0 mph 86 % 0.00 in 0 W/m2
05:26 32.2 °F 28.5 °F 29.96 in WNW 4.0 mph 6.0 mph 86 % 0.00 in 0 W/m2
05:29 32.2 °F 28.5 °F 29.96 in WNW 2.0 mph 7.0 mph 86 % 0.00 in 0 W/m2
05:31 32.2 °F 28.5 °F 29.96 in WNW 4.0 mph 6.0 mph 86 % 0.00 in 0 W/m2
05:36 32.0 °F 28.3 °F 29.96 in WNW 3.0 mph 6.0 mph 86 % 0.00 in 0 W/m2
05:37 32.0 °F 28.3 °F 29.96 in WNW 3.0 mph 5.0 mph 86 % 0.00 in 0 W/m2
05:42 31.8 °F 28.1 °F 29.96 in WNW 4.0 mph 8.0 mph 86 % 0.00 in 0 W/m2
05:47 31.8 °F 28.1 °F 29.96 in WNW 3.0 mph 5.0 mph 86 % 0.00 in 0 W/m2
05:48 31.8 °F 28.1 °F 29.96 in WNW 3.0 mph 5.0 mph 86 % 0.00 in 0 W/m2
05:50 31.8 °F 28.1 °F 29.96 in WNW 3.0 mph 5.0 mph 86 % 0.00 in 0 W/m2
05:55 31.6 °F 27.9 °F 29.96 in WNW 4.0 mph 6.0 mph 86 % 0.00 in 0 W/m2
05:56 31.6 °F 27.9 °F 29.96 in WNW 5.0 mph 6.0 mph 86 % 0.00 in 0 W/m2
06:01 31.6 °F 28.2 °F 29.96 in WNW 6.0 mph 9.0 mph 87 % 0.00 in 0 W/m2
06:02 31.6 °F 28.2 °F 29.96 in WNW 6.0 mph 9.0 mph 87 % 0.00 in 0 W/m2
06:07 31.6 °F 28.2 °F 29.96 in WNW 5.0 mph 8.0 mph 87 % 0.00 in 0 W/m2
06:08 31.6 °F 28.2 °F 29.97 in WNW 4.0 mph 7.0 mph 87 % 0.00 in 0 W/m2
06:10 31.6 °F 28.2 °F 29.96 in WNW 4.0 mph 6.0 mph 87 % 0.00 in 0 W/m2
06:15 31.6 °F 28.2 °F 29.97 in WNW 6.0 mph 10.0 mph 87 % 0.00 in 0 W/m2
06:18 31.8 °F 28.4 °F 29.97 in WNW 4.0 mph 7.0 mph 87 % 0.00 in 0 W/m2
06:21 31.8 °F 28.4 °F 29.97 in WNW 5.0 mph 9.0 mph 87 % 0.00 in 0 W/m2
06:23 31.8 °F 28.1 °F 29.97 in WNW 6.0 mph 9.0 mph 86 % 0.00 in 0 W/m2
06:28 32.0 °F 28.3 °F 29.97 in WNW 6.0 mph 8.0 mph 86 % 0.00 in 0 W/m2
06:31 32.2 °F 28.5 °F 29.97 in WNW 4.0 mph 7.0 mph 86 % 0.00 in 0 W/m2
06:36 32.2 °F 28.5 °F 29.97 in WNW 6.0 mph 8.0 mph 86 % 0.00 in 0 W/m2
06:38 32.2 °F 28.5 °F 29.97 in WNW 5.0 mph 7.0 mph 86 % 0.00 in 0 W/m2
06:43 32.2 °F 28.2 °F 29.97 in WNW 6.0 mph 10.0 mph 85 % 0.00 in 0 W/m2
06:45 32.2 °F 28.5 °F 29.97 in WNW 6.0 mph 9.0 mph 86 % 0.00 in 0 W/m2
06:50 32.4 °F 28.4 °F 29.97 in WNW 6.0 mph 9.0 mph 85 % 0.00 in 0 W/m2
06:51 32.4 °F 28.4 °F 29.97 in WNW 6.0 mph 9.0 mph 85 % 0.00 in 0 W/m2
06:53 32.5 °F 28.5 °F 29.98 in WNW 5.0 mph 9.0 mph 85 % 0.00 in 0 W/m2
06:57 32.5 °F 28.5 °F 29.98 in WNW 5.0 mph 7.0 mph 85 % 0.00 in 0 W/m2
07:02 32.5 °F 28.2 °F 29.98 in WNW 4.0 mph 7.0 mph 84 % 0.00 in 0 W/m2
07:06 32.4 °F 28.1 °F 29.98 in WNW 2.0 mph 4.0 mph 84 % 0.00 in 0 W/m2
07:10 32.4 °F 28.1 °F 29.98 in WNW 2.0 mph 4.0 mph 84 % 0.00 in 0 W/m2
07:12 32.2 °F 27.9 °F 29.98 in WNW 1.0 mph 2.0 mph 84 % 0.00 in 0 W/m2
07:17 31.8 °F 27.5 °F 29.98 in WNW 1.0 mph 2.0 mph 84 % 0.00 in 0 W/m2
07:22 31.6 °F 27.4 °F 29.98 in WNW 4.0 mph 7.0 mph 84 % 0.00 in 0 W/m2
07:23 31.6 °F 27.4 °F 29.98 in WNW 4.0 mph 7.0 mph 84 % 0.00 in 0 W/m2
07:25 31.5 °F 27.2 °F 29.98 in WNW 5.0 mph 7.0 mph 84 % 0.00 in 0 W/m2
07:31 31.5 °F 27.5 °F 29.98 in WNW 3.0 mph 6.0 mph 85 % 0.00 in 0 W/m2
07:32 31.5 °F 27.5 °F 29.98 in WNW 4.0 mph 6.0 mph 85 % 0.00 in 0 W/m2
07:36 31.6 °F 27.9 °F 29.98 in WNW 4.0 mph 6.0 mph 86 % 0.00 in 0 W/m2
07:41 31.6 °F 27.6 °F 29.99 in NW 5.0 mph 8.0 mph 85 % 0.00 in 0 W/m2
07:46 31.8 °F 27.8 °F 29.99 in WNW 5.0 mph 8.0 mph 85 % 0.00 in 0 W/m2
07:51 32.2 °F 28.2 °F 29.99 in WNW 6.0 mph 10.0 mph 85 % 0.00 in 0 W/m2
07:52 32.2 °F 28.2 °F 29.99 in WNW 6.0 mph 10.0 mph 85 % 0.00 in 0 W/m2
07:59 32.4 °F 28.4 °F 29.99 in WNW 5.0 mph 7.0 mph 85 % 0.00 in 0 W/m2
08:01 32.4 °F 28.1 °F 29.99 in WNW 5.0 mph 9.0 mph 84 % 0.00 in 0 W/m2
08:06 32.5 °F 28.2 °F 29.99 in WNW 6.0 mph 9.0 mph 84 % 0.00 in 7 W/m2
08:11 32.7 °F 28.4 °F 29.99 in WNW 5.0 mph 8.0 mph 84 % 0.00 in 11 W/m2
08:13 32.9 °F 28.6 °F 29.99 in WNW 6.0 mph 8.0 mph 84 % 0.00 in 11 W/m2
08:18 33.1 °F 28.8 °F 29.99 in WNW 4.0 mph 6.0 mph 84 % 0.00 in 12 W/m2
08:19 33.3 °F 28.9 °F 29.99 in WNW 4.0 mph 7.0 mph 84 % 0.00 in 12 W/m2
08:20 33.3 °F 28.9 °F 29.99 in WNW 3.0 mph 7.0 mph 84 % 0.00 in 14 W/m2
08:24 33.4 °F 28.8 °F 29.99 in WNW 4.0 mph 6.0 mph 83 % 0.00 in 16 W/m2
08:27 33.4 °F 28.8 °F 29.99 in WNW 4.0 mph 7.0 mph 83 % 0.00 in 16 W/m2
08:32 33.6 °F 29.0 °F 29.99 in WNW 5.0 mph 9.0 mph 83 % 0.00 in 18 W/m2
08:34 33.8 °F 29.2 °F 29.99 in WNW 5.0 mph 9.0 mph 83 % 0.00 in 19 W/m2
08:39 34.2 °F 29.5 °F 29.99 in WNW 6.0 mph 8.0 mph 83 % 0.00 in 30 W/m2
08:42 34.3 °F 29.7 °F 29.99 in WNW 5.0 mph 8.0 mph 83 % 0.00 in 30 W/m2
08:45 34.3 °F 29.7 °F 29.99 in WNW 5.0 mph 8.0 mph 83 % 0.00 in 33 W/m2
08:48 34.5 °F 29.6 °F 29.99 in WNW 5.0 mph 8.0 mph 82 % 0.00 in 37 W/m2
08:53 34.9 °F 29.9 °F 29.99 in WNW 5.0 mph 8.0 mph 82 % 0.00 in 28 W/m2
08:55 34.9 °F 29.9 °F 29.99 in WNW 5.0 mph 9.0 mph 82 % 0.00 in 25 W/m2
09:00 35.1 °F 30.1 °F 29.99 in WNW 6.0 mph 8.0 mph 82 % 0.00 in 26 W/m2
09:05 35.4 °F 30.5 °F 29.99 in WNW 6.0 mph 9.0 mph 82 % 0.00 in 32 W/m2
09:10 35.6 °F 30.6 °F 29.99 in WNW 7.0 mph 10.0 mph 82 % 0.00 in 26 W/m2
09:15 35.8 °F 30.5 °F 30.00 in WNW 5.0 mph 7.0 mph 81 % 0.00 in 30 W/m2
09:16 35.8 °F 30.5 °F 30.00 in WNW 5.0 mph 7.0 mph 81 % 0.00 in 30 W/m2
09:21 36.0 °F 31.0 °F 30.00 in WNW 6.0 mph 9.0 mph 82 % 0.00 in 33 W/m2
09:24 36.0 °F 31.0 °F 30.00 in WNW 6.0 mph 8.0 mph 82 % 0.00 in 32 W/m2
09:29 36.0 °F 31.0 °F 30.00 in WNW 5.0 mph 8.0 mph 82 % 0.00 in 30 W/m2
09:34 36.0 °F 31.0 °F 30.00 in WNW 6.0 mph 8.0 mph 82 % 0.00 in 25 W/m2
09:39 36.0 °F 31.3 °F 30.00 in WNW 6.0 mph 8.0 mph 83 % 0.00 in 25 W/m2
09:40 36.0 °F 31.3 °F 30.00 in WNW 6.0 mph 8.0 mph 83 % 0.00 in 23 W/m2
09:45 36.0 °F 31.3 °F 30.00 in WNW 6.0 mph 8.0 mph 83 % 0.00 in 18 W/m2
09:50 36.0 °F 31.3 °F 30.01 in WNW 5.0 mph 8.0 mph 83 % 0.00 in 19 W/m2
09:52 36.0 °F 31.3 °F 30.01 in WNW 5.0 mph 8.0 mph 83 % 0.00 in 19 W/m2
09:57 36.1 °F 31.5 °F 30.01 in WNW 4.0 mph 7.0 mph 83 % 0.00 in 26 W/m2
09:59 36.1 °F 31.5 °F 30.01 in WNW 3.0 mph 6.0 mph 83 % 0.00 in 30 W/m2
10:04 36.1 °F 31.5 °F 30.00 in WNW 4.0 mph 6.0 mph 83 % 0.00 in 32 W/m2
10:05 36.1 °F 31.5 °F 30.00 in WNW 5.0 mph 6.0 mph 83 % 0.00 in 32 W/m2
10:10 36.3 °F 31.7 °F 30.00 in West 5.0 mph 8.0 mph 83 % 0.00 in 39 W/m2
10:15 36.7 °F 32.0 °F 30.00 in WNW 5.0 mph 7.0 mph 83 % 0.00 in 69 W/m2
10:16 36.7 °F 32.0 °F 30.00 in WNW 5.0 mph 7.0 mph 83 % 0.00 in 74 W/m2
10:21 36.9 °F 32.5 °F 30.01 in WNW 4.0 mph 7.0 mph 84 % 0.00 in 79 W/m2
10:22 36.9 °F 32.5 °F 30.01 in WNW 4.0 mph 7.0 mph 84 % 0.00 in 83 W/m2
10:27 37.0 °F 32.7 °F 30.01 in West 3.0 mph 6.0 mph 84 % 0.00 in 123 W/m2
10:32 37.4 °F 33.0 °F 30.01 in WNW 4.0 mph 7.0 mph 84 % 0.00 in 97 W/m2
10:34 37.6 °F 33.2 °F 30.01 in WNW 3.0 mph 7.0 mph 84 % 0.00 in 118 W/m2
10:39 37.8 °F 33.4 °F 30.01 in WNW 5.0 mph 8.0 mph 84 % 0.00 in 93 W/m2
10:44 38.1 °F 33.7 °F 30.01 in West 4.0 mph 7.0 mph 84 % 0.00 in 97 W/m2
10:45 38.1 °F 33.7 °F 30.01 in West 4.0 mph 7.0 mph 84 % 0.00 in 97 W/m2
10:50 38.1 °F 33.4 °F 30.01 in West 5.0 mph 8.0 mph 83 % 0.00 in 104 W/m2
10:52 38.3 °F 33.6 °F 30.01 in West 5.0 mph 8.0 mph 83 % 0.00 in 97 W/m2
10:55 38.3 °F 33.9 °F 30.01 in West 5.0 mph 9.0 mph 84 % 0.00 in 93 W/m2
10:58 38.5 °F 34.1 °F 30.01 in West 5.0 mph 9.0 mph 84 % 0.00 in 109 W/m2
11:03 38.7 °F 34.2 °F 30.01 in West 4.0 mph 7.0 mph 84 % 0.00 in 190 W/m2
11:06 38.8 °F 34.4 °F 30.02 in West 4.0 mph 8.0 mph 84 % 0.00 in 172 W/m2
11:11 39.4 °F 35.2 °F 30.02 in West 4.0 mph 10.0 mph 85 % 0.00 in 304 W/m2
11:14 39.7 °F 35.6 °F 30.01 in West 6.0 mph 9.0 mph 85 % 0.00 in 320 W/m2
11:20 40.5 °F 35.7 °F 30.01 in West 5.0 mph 11.0 mph 83 % 0.00 in 339 W/m2
11:25 41.2 °F 36.4 °F 30.01 in West 5.0 mph 9.0 mph 83 % 0.00 in 332 W/m2
11:30 41.5 °F 36.5 °F 30.01 in WNW 7.0 mph 11.0 mph 82 % 0.00 in 316 W/m2
11:32 41.7 °F 36.6 °F 30.01 in WNW 8.0 mph 13.0 mph 82 % 0.00 in 320 W/m2
11:38 42.1 °F 36.7 °F 30.01 in WNW 7.0 mph 11.0 mph 81 % 0.00 in 318 W/m2
11:43 42.4 °F 36.7 °F 30.01 in West 3.0 mph 9.0 mph 80 % 0.00 in 345 W/m2
11:44 42.4 °F 36.7 °F 30.01 in West 4.0 mph 11.0 mph 80 % 0.00 in 346 W/m2
11:46 42.6 °F 36.9 °F 30.01 in WNW 7.0 mph 11.0 mph 80 % 0.00 in 329 W/m2
11:51 42.6 °F 36.6 °F 30.01 in West 7.0 mph 12.0 mph 79 % 0.00 in 118 W/m2
11:53 42.4 °F 36.1 °F 30.01 in WNW 9.0 mph 18.0 mph 78 % 0.00 in 97 W/m2
11:58 42.1 °F 36.0 °F 30.01 in West 5.0 mph 7.0 mph 79 % 0.00 in 258 W/m2
12:00 41.9 °F 35.9 °F 30.01 in West 6.0 mph 11.0 mph 79 % 0.00 in 251 W/m2
12:05 42.1 °F 36.4 °F 30.01 in WNW 8.0 mph 15.0 mph 80 % 0.00 in 248 W/m2
12:10 42.1 °F 36.4 °F 30.01 in West 8.0 mph 13.0 mph 80 % 0.00 in 230 W/m2
12:11 42.1 °F 36.4 °F 30.01 in West 8.0 mph 13.0 mph 80 % 0.00 in 251 W/m2
12:16 41.7 °F 36.0 °F 30.01 in West 7.0 mph 10.0 mph 80 % 0.00 in 262 W/m2
12:18 41.7 °F 36.0 °F 30.01 in West 7.0 mph 11.0 mph 80 % 0.00 in 258 W/m2
12:23 41.7 °F 36.0 °F 30.01 in West 3.0 mph 7.0 mph 80 % 0.00 in 158 W/m2
12:28 41.7 °F 36.0 °F 30.01 in West 4.0 mph 7.0 mph 80 % 0.00 in 56 W/m2
12:32 41.4 °F 35.7 °F 30.01 in West 4.0 mph 7.0 mph 80 % 0.00 in 204 W/m2
12:36 41.4 °F 36.0 °F 30.01 in West 3.0 mph 7.0 mph 81 % 0.00 in 58 W/m2
12:37 41.2 °F 35.5 °F 30.01 in West 2.0 mph 5.0 mph 80 % 0.00 in 46 W/m2
12:42 40.8 °F 35.4 °F 30.01 in West 3.0 mph 6.0 mph 81 % 0.00 in 49 W/m2
12:44 40.8 °F 35.4 °F 30.01 in West 5.0 mph 9.0 mph 81 % 0.00 in 125 W/m2
12:49 40.6 °F 35.6 °F 30.01 in WNW 3.0 mph 8.0 mph 82 % 0.00 in 141 W/m2
12:51 40.8 °F 35.7 °F 30.01 in WNW 4.0 mph 8.0 mph 82 % 0.00 in 178 W/m2
12:55 40.8 °F 35.7 °F 30.01 in WNW 6.0 mph 10.0 mph 82 % 0.00 in 83 W/m2
12:57 40.8 °F 35.7 °F 30.02 in WNW 7.0 mph 10.0 mph 82 % 0.00 in 120 W/m2
13:00 40.8 °F 35.7 °F 30.02 in WNW 7.0 mph 10.0 mph 82 % 0.00 in 109 W/m2
13:05 40.6 °F 35.6 °F 30.03 in WNW 6.0 mph 8.0 mph 82 % 0.00 in 130 W/m2
13:08 40.6 °F 35.6 °F 30.03 in WNW 5.0 mph 10.0 mph 82 % 0.00 in 134 W/m2
13:11 40.6 °F 35.9 °F 30.03 in WNW 6.0 mph 8.0 mph 83 % 0.00 in 137 W/m2
13:15 40.6 °F 35.9 °F 30.03 in WNW 4.0 mph 10.0 mph 83 % 0.00 in 139 W/m2
13:17 40.8 °F 36.1 °F 30.03 in WNW 5.0 mph 10.0 mph 83 % 0.00 in 163 W/m2
13:22 40.8 °F 36.1 °F 30.03 in WNW 7.0 mph 8.0 mph 83 % 0.00 in 130 W/m2
13:27 40.8 °F 36.1 °F 30.03 in NW 5.0 mph 10.0 mph 83 % 0.00 in 135 W/m2
13:28 40.8 °F 36.1 °F 30.03 in NW 5.0 mph 8.0 mph 83 % 0.00 in 165 W/m2
13:30 41.0 °F 36.2 °F 30.03 in NNW 4.0 mph 7.0 mph 83 % 0.00 in 123 W/m2
13:35 41.0 °F 36.2 °F 30.03 in Calm   5.0 mph 83 % 0.00 in 88 W/m2
13:36 41.0 °F 36.2 °F 30.03 in North 3.0 mph 6.0 mph 83 % 0.00 in 95 W/m2
13:42 41.0 °F 36.2 °F 30.03 in NNW 1.0 mph 5.0 mph 83 % 0.00 in 98 W/m2
13:47 40.8 °F 36.1 °F 30.03 in WNW 1.0 mph 6.0 mph 83 % 0.00 in 98 W/m2
13:51 40.8 °F 36.1 °F 30.03 in NW 2.0 mph 7.0 mph 83 % 0.00 in 95 W/m2
13:56 40.6 °F 35.9 °F 30.03 in NW 1.0 mph 5.0 mph 83 % 0.00 in 107 W/m2
14:00 40.6 °F 35.9 °F 30.04 in Calm   2.0 mph 83 % 0.00 in 105 W/m2
14:02 40.6 °F 35.9 °F 30.04 in North 2.0 mph 6.0 mph 83 % 0.00 in 97 W/m2
14:08 40.6 °F 36.2 °F 30.04 in Calm   2.0 mph 84 % 0.00 in 63 W/m2
14:13 40.6 °F 36.2 °F 30.04 in Calm   1.0 mph 84 % 0.00 in 39 W/m2
14:15 40.6 °F 36.2 °F 30.04 in Calm     84 % 0.00 in 33 W/m2
14:17 40.6 °F 36.2 °F 30.04 in Calm     84 % 0.00 in 33 W/m2
14:22 40.5 °F 35.7 °F 30.04 in North 2.0 mph 6.0 mph 83 % 0.00 in 33 W/m2
14:23 40.5 °F 35.7 °F 30.05 in NNW 1.0 mph 6.0 mph 83 % 0.00 in 32 W/m2
14:24 40.5 °F 36.0 °F 30.05 in NNW 1.0 mph 5.0 mph 84 % 0.00 in 30 W/m2
14:28 40.3 °F 35.8 °F 30.05 in NNW 1.0 mph 5.0 mph 84 % 0.00 in 25 W/m2
14:33 40.3 °F 35.8 °F 30.05 in NNW 2.0 mph 6.0 mph 84 % 0.00 in 23 W/m2
14:34 40.3 °F 35.8 °F 30.05 in North 2.0 mph 6.0 mph 84 % 0.00 in 23 W/m2
14:39 39.9 °F 35.5 °F 30.05 in NW 4.0 mph 8.0 mph 84 % 0.00 in 25 W/m2
14:41 39.9 °F 35.5 °F 30.05 in NW 4.0 mph 8.0 mph 84 % 0.00 in 23 W/m2
14:44 39.7 °F 35.3 °F 30.05 in NW 5.0 mph 9.0 mph 84 % 0.00 in 23 W/m2
14:49 39.6 °F 35.4 °F 30.06 in NNW 4.0 mph 10.0 mph 85 % 0.00 in 21 W/m2
14:51 39.6 °F 35.4 °F 30.06 in NNW 3.0 mph 8.0 mph 85 % 0.00 in 21 W/m2
14:56 39.4 °F 35.2 °F 30.06 in NW 3.0 mph 9.0 mph 85 % 0.00 in 21 W/m2
14:58 39.4 °F 35.2 °F 30.05 in NW 5.0 mph 9.0 mph 85 % 0.00 in 19 W/m2
15:03 39.2 °F 35.1 °F 30.06 in NW 4.0 mph 8.0 mph 85 % 0.00 in 18 W/m2
15:08 39.0 °F 35.2 °F 30.05 in WNW 5.0 mph 8.0 mph 86 % 0.00 in 16 W/m2
15:09 39.0 °F 35.2 °F 30.05 in WNW 5.0 mph 8.0 mph 86 % 0.00 in 16 W/m2
15:14 38.8 °F 35.0 °F 30.05 in NW 3.0 mph 7.0 mph 86 % 0.00 in 18 W/m2
15:19 38.7 °F 34.8 °F 30.06 in WNW 2.0 mph 6.0 mph 86 % 0.00 in 19 W/m2
15:22 38.7 °F 34.8 °F 30.06 in NW 3.0 mph 7.0 mph 86 % 0.00 in 16 W/m2
15:32 38.5 °F 34.9 °F 30.06 in WNW 4.0 mph 7.0 mph 87 % 0.00 in 5 W/m2
15:35 38.5 °F 34.9 °F 30.06 in WNW 5.0 mph 8.0 mph 87 % 0.00 in 0 W/m2
15:40 38.3 °F 34.8 °F 30.07 in NW 5.0 mph 9.0 mph 87 % 0.00 in 0 W/m2
15:41 38.1 °F 34.6 °F 30.07 in NW 5.0 mph 9.0 mph 87 % 0.00 in 0 W/m2
15:44 38.1 °F 34.9 °F 30.07 in NW 4.0 mph 10.0 mph 88 % 0.00 in 0 W/m2
15:50 38.1 °F 34.9 °F 30.06 in WNW 5.0 mph 10.0 mph 88 % 0.00 in 0 W/m2
15:51 37.9 °F 34.7 °F 30.07 in WNW 5.0 mph 9.0 mph 88 % 0.00 in 0 W/m2
15:53 37.9 °F 34.7 °F 30.07 in NW 5.0 mph 9.0 mph 88 % 0.00 in 0 W/m2
15:58 37.9 °F 34.7 °F 30.07 in NW 5.0 mph 9.0 mph 88 % 0.00 in 0 W/m2
16:00 37.8 °F 34.5 °F 30.08 in NW 5.0 mph 11.0 mph 88 % 0.00 in 0 W/m2
16:05 37.8 °F 34.5 °F 30.08 in WNW 4.0 mph 8.0 mph 88 % 0.00 in 0 W/m2
16:11 37.6 °F 34.3 °F 30.08 in NW 4.0 mph 8.0 mph 88 % 0.00 in 0 W/m2
16:16 37.2 °F 34.3 °F 30.09 in WNW 4.0 mph 6.0 mph 89 % 0.00 in 0 W/m2
16:17 37.2 °F 34.3 °F 30.09 in WNW 4.0 mph 7.0 mph 89 % 0.00 in 0 W/m2
16:22 37.0 °F 34.1 °F 30.09 in NW 5.0 mph 9.0 mph 89 % 0.00 in 0 W/m2
16:23 37.0 °F 34.1 °F 30.09 in NW 3.0 mph 7.0 mph 89 % 0.00 in 0 W/m2
16:28 36.9 °F 33.9 °F 30.09 in WNW 4.0 mph 7.0 mph 89 % 0.00 in 0 W/m2
16:30 36.9 °F 33.9 °F 30.09 in NW 3.0 mph 7.0 mph 89 % 0.00 in 0 W/m2
16:33 36.7 °F 33.7 °F 30.09 in NW 4.0 mph 7.0 mph 89 % 0.00 in 0 W/m2
16:38 36.5 °F 33.8 °F 30.09 in WNW 5.0 mph 8.0 mph 90 % 0.00 in 0 W/m2
16:40 36.5 °F 33.8 °F 30.09 in WNW 4.0 mph 8.0 mph 90 % 0.00 in 0 W/m2
16:45 36.3 °F 33.7 °F 30.09 in WNW 4.0 mph 7.0 mph 90 % 0.00 in 0 W/m2
16:49 36.1 °F 33.5 °F 30.09 in WNW 5.0 mph 8.0 mph 90 % 0.00 in 0 W/m2
16:56 36.0 °F 33.3 °F 30.09 in WNW 5.0 mph 9.0 mph 90 % 0.00 in 0 W/m2
16:57 36.0 °F 33.3 °F 30.09 in WNW 5.0 mph 9.0 mph 90 % 0.00 in 0 W/m2
17:02 36.0 °F 33.6 °F 30.10 in WNW 5.0 mph 8.0 mph 91 % 0.00 in 0 W/m2
17:05 36.0 °F 33.6 °F 30.10 in WNW 5.0 mph 8.0 mph 91 % 0.00 in 0 W/m2
17:10 35.8 °F 33.4 °F 30.10 in WNW 5.0 mph 9.0 mph 91 % 0.00 in 0 W/m2
17:13 35.8 °F 33.4 °F 30.10 in WNW 5.0 mph 8.0 mph 91 % 0.00 in 0 W/m2
17:18 35.6 °F 33.2 °F 30.10 in NW 5.0 mph 7.0 mph 91 % 0.00 in 0 W/m2
17:20 35.4 °F 33.1 °F 30.10 in NW 5.0 mph 8.0 mph 91 % 0.00 in 0 W/m2
17:23 35.4 °F 33.1 °F 30.10 in NW 3.0 mph 6.0 mph 91 % 0.00 in 0 W/m2
17:26 35.4 °F 33.1 °F 30.10 in WNW 4.0 mph 6.0 mph 91 % 0.00 in 0 W/m2
17:31 35.4 °F 33.1 °F 30.10 in NW 4.0 mph 7.0 mph 91 % 0.00 in 0 W/m2
17:32 35.4 °F 33.3 °F 30.10 in WNW 4.0 mph 7.0 mph 92 % 0.00 in 0 W/m2
17:37 35.2 °F 33.1 °F 30.10 in WNW 6.0 mph 8.0 mph 92 % 0.00 in 0 W/m2
17:39 35.2 °F 33.1 °F 30.10 in WNW 6.0 mph 8.0 mph 92 % 0.00 in 0 W/m2
17:41 35.2 °F 33.1 °F 30.11 in WNW 6.0 mph 9.0 mph 92 % 0.00 in 0 W/m2
17:45 35.2 °F 33.1 °F 30.11 in WNW 5.0 mph 7.0 mph 92 % 0.00 in 0 W/m2
17:50 35.1 °F 33.0 °F 30.11 in WNW 4.0 mph 6.0 mph 92 % 0.00 in 0 W/m2
17:51 35.1 °F 33.0 °F 30.11 in WNW 4.0 mph 6.0 mph 92 % 0.00 in 0 W/m2
17:53 34.9 °F 32.8 °F 30.11 in WNW 4.0 mph 6.0 mph 92 % 0.00 in 0 W/m2
17:58 34.9 °F 32.8 °F 30.11 in WNW 4.0 mph 7.0 mph 92 % 0.00 in 0 W/m2
18:03 34.7 °F 32.6 °F 30.11 in WNW 3.0 mph 6.0 mph 92 % 0.00 in 0 W/m2
18:08 34.5 °F 32.4 °F 30.12 in WNW 4.0 mph 6.0 mph 92 % 0.00 in 0 W/m2
18:10 34.5 °F 32.4 °F 30.12 in WNW 4.0 mph 6.0 mph 92 % 0.00 in 0 W/m2
18:15 34.5 °F 32.4 °F 30.12 in WNW 3.0 mph 6.0 mph 92 % 0.00 in 0 W/m2
18:16 34.5 °F 32.4 °F 30.12 in WNW 3.0 mph 6.0 mph 92 % 0.00 in 0 W/m2
18:21 34.3 °F 32.3 °F 30.12 in WNW 3.0 mph 5.0 mph 92 % 0.00 in 0 W/m2
18:24 34.3 °F 32.5 °F 30.12 in WNW 3.0 mph 5.0 mph 93 % 0.00 in 0 W/m2
18:26 34.3 °F 32.5 °F 30.12 in WNW 3.0 mph 6.0 mph 93 % 0.00 in 0 W/m2
18:30 34.3 °F 32.5 °F 30.13 in WNW 3.0 mph 6.0 mph 93 % 0.00 in 0 W/m2
18:31 34.2 °F 32.3 °F 30.13 in WNW 2.0 mph 6.0 mph 93 % 0.00 in 0 W/m2
18:35 34.2 °F 32.1 °F 30.12 in NW 2.0 mph 5.0 mph 92 % 0.00 in 0 W/m2
18:40 34.0 °F 32.2 °F 30.12 in WNW 4.0 mph 6.0 mph 93 % 0.00 in 0 W/m2
18:43 34.0 °F 32.2 °F 30.13 in WNW 5.0 mph 7.0 mph 93 % 0.00 in 0 W/m2
18:48 33.8 °F 32.0 °F 30.13 in WNW 4.0 mph 6.0 mph 93 % 0.00 in 0 W/m2
18:51 33.8 °F 32.0 °F 30.13 in WNW 3.0 mph 6.0 mph 93 % 0.00 in 0 W/m2
18:57 33.6 °F 31.8 °F 30.13 in WNW 5.0 mph 7.0 mph 93 % 0.00 in 0 W/m2
18:58 33.6 °F 31.8 °F 30.13 in WNW 4.0 mph 6.0 mph 93 % 0.00 in 0 W/m2
18:59 33.6 °F 31.8 °F 30.13 in WNW 4.0 mph 7.0 mph 93 % 0.00 in 0 W/m2
19:04 33.6 °F 31.8 °F 30.13 in WNW 3.0 mph 6.0 mph 93 % 0.00 in 0 W/m2
19:07 33.6 °F 31.8 °F 30.13 in WNW 3.0 mph 6.0 mph 93 % 0.00 in 0 W/m2
19:09 33.6 °F 31.8 °F 30.13 in WNW 3.0 mph 7.0 mph 93 % 0.00 in 0 W/m2
19:14 33.6 °F 31.8 °F 30.14 in NW 4.0 mph 7.0 mph 93 % 0.00 in 0 W/m2
19:19 33.8 °F 32.0 °F 30.14 in WNW 4.0 mph 8.0 mph 93 % 0.00 in 0 W/m2
19:20 34.0 °F 32.2 °F 30.14 in WNW 4.0 mph 6.0 mph 93 % 0.00 in 0 W/m2
19:21 34.0 °F 32.2 °F 30.14 in WNW 3.0 mph 6.0 mph 93 % 0.00 in 0 W/m2
19:26 34.0 °F 32.2 °F 30.14 in NW 3.0 mph 6.0 mph 93 % 0.00 in 0 W/m2
19:28 34.0 °F 32.2 °F 30.14 in WNW 2.0 mph 6.0 mph 93 % 0.00 in 0 W/m2
19:33 33.8 °F 32.0 °F 30.14 in WNW 3.0 mph 6.0 mph 93 % 0.00 in 0 W/m2
19:34 33.8 °F 32.0 °F 30.14 in WNW 4.0 mph 6.0 mph 93 % 0.00 in 0 W/m2
19:35 33.6 °F 31.8 °F 30.14 in WNW 3.0 mph 6.0 mph 93 % 0.00 in 0 W/m2
19:40 33.6 °F 31.8 °F 30.15 in WNW 3.0 mph 7.0 mph 93 % 0.00 in 0 W/m2
19:43 33.6 °F 31.8 °F 30.15 in WNW 4.0 mph 7.0 mph 93 % 0.00 in 0 W/m2
19:46 33.6 °F 31.8 °F 30.15 in WNW 3.0 mph 6.0 mph 93 % 0.00 in 0 W/m2
19:48 33.6 °F 31.8 °F 30.15 in WNW 2.0 mph 5.0 mph 93 % 0.00 in 0 W/m2
19:53 33.4 °F 31.6 °F 30.15 in WNW 1.0 mph 5.0 mph 93 % 0.00 in 0 W/m2
19:54 33.4 °F 31.6 °F 30.15 in WNW 1.0 mph 5.0 mph 93 % 0.00 in 0 W/m2
19:55 33.4 °F 31.6 °F 30.15 in WNW 1.0 mph 5.0 mph 93 % 0.00 in 0 W/m2
20:00 33.3 °F 31.2 °F 30.15 in Calm     92 % 0.00 in 0 W/m2
20:02 32.9 °F 30.8 °F 30.15 in Calm     92 % 0.00 in 0 W/m2
20:07 32.5 °F 30.5 °F 30.16 in Calm   1.0 mph 92 % 0.00 in 0 W/m2
20:11 32.2 °F 29.8 °F 30.16 in WNW 2.0 mph 4.0 mph 91 % 0.00 in 0 W/m2
20:15 31.8 °F 29.5 °F 30.16 in WNW 3.0 mph 4.0 mph 91 % 0.00 in 0 W/m2
20:17 31.6 °F 29.6 °F 30.16 in WNW 2.0 mph 5.0 mph 92 % 0.00 in 0 W/m2
20:22 31.5 °F 29.4 °F 30.16 in WNW 2.0 mph 5.0 mph 92 % 0.00 in 0 W/m2
20:24 31.5 °F 29.4 °F 30.17 in WNW 2.0 mph 5.0 mph 92 % 0.00 in 0 W/m2
20:25 31.5 °F 29.4 °F 30.17 in WNW 1.0 mph 4.0 mph 92 % 0.00 in 0 W/m2
20:29 31.3 °F 29.5 °F 30.17 in Calm   2.0 mph 93 % 0.00 in 0 W/m2
20:31 31.3 °F 29.5 °F 30.17 in Calm   1.0 mph 93 % 0.00 in 0 W/m2
20:36 31.3 °F 29.5 °F 30.17 in Calm   4.0 mph 93 % 0.00 in 0 W/m2
20:41 31.3 °F 29.5 °F 30.17 in NW 3.0 mph 6.0 mph 93 % 0.00 in 0 W/m2
20:44 31.5 °F 29.9 °F 30.17 in WNW 4.0 mph 8.0 mph 94 % 0.00 in 0 W/m2
20:46 31.6 °F 30.1 °F 30.17 in WNW 4.0 mph 7.0 mph 94 % 0.00 in 0 W/m2
20:52 32.2 °F 30.6 °F 30.17 in WNW 3.0 mph 6.0 mph 94 % 0.00 in 0 W/m2
20:57 32.2 °F 30.6 °F 30.17 in WNW 1.0 mph 4.0 mph 94 % 0.00 in 0 W/m2
20:58 32.2 °F 30.4 °F 30.17 in WNW 1.0 mph 4.0 mph 93 % 0.00 in 0 W/m2
21:03 31.8 °F 30.0 °F 30.17 in Calm     93 % 0.00 in 0 W/m2
21:04 31.8 °F 30.0 °F 30.18 in Calm     93 % 0.00 in 0 W/m2
21:09 31.6 °F 29.8 °F 30.18 in Calm   1.0 mph 93 % 0.00 in 0 W/m2
21:12 31.5 °F 29.7 °F 30.18 in Calm     93 % 0.00 in 0 W/m2
21:17 31.1 °F 29.0 °F 30.18 in Calm     92 % 0.00 in 0 W/m2
21:18 31.1 °F 29.0 °F 30.18 in Calm     92 % 0.00 in 0 W/m2
21:23 30.7 °F 28.7 °F 30.18 in Calm     92 % 0.00 in 0 W/m2
21:24 30.7 °F 28.7 °F 30.18 in Calm     92 % 0.00 in 0 W/m2
21:29 30.4 °F 28.3 °F 30.18 in Calm     92 % 0.00 in 0 W/m2
21:32 30.2 °F 28.2 °F 30.18 in Calm     92 % 0.00 in 0 W/m2
21:36 30.0 °F 28.0 °F 30.18 in Calm   2.0 mph 92 % 0.00 in 0 W/m2
21:41 29.8 °F 28.1 °F 30.18 in WNW 3.0 mph 5.0 mph 93 % 0.00 in 0 W/m2
21:42 29.8 °F 28.1 °F 30.18 in WNW 3.0 mph 5.0 mph 93 % 0.00 in 0 W/m2
21:47 29.8 °F 28.1 °F 30.18 in WNW 3.0 mph 5.0 mph 93 % 0.00 in 0 W/m2
21:48 29.8 °F 28.1 °F 30.18 in WNW 3.0 mph 5.0 mph 93 % 0.00 in 0 W/m2
21:53 30.0 °F 28.5 °F 30.18 in WNW 2.0 mph 5.0 mph 94 % 0.00 in 0 W/m2
21:55 30.0 °F 28.5 °F 30.18 in WNW 1.0 mph 4.0 mph 94 % 0.00 in 0 W/m2
21:58 30.0 °F 28.5 °F 30.18 in Calm   1.0 mph 94 % 0.00 in 0 W/m2
22:03 30.0 °F 28.2 °F 30.18 in Calm     93 % 0.00 in 0 W/m2
22:08 29.7 °F 27.9 °F 30.18 in Calm     93 % 0.00 in 0 W/m2
22:09 29.5 °F 27.7 °F 30.18 in Calm     93 % 0.00 in 0 W/m2
22:13 29.3 °F 27.5 °F 30.19 in Calm     93 % 0.00 in 0 W/m2
22:14 29.1 °F 27.3 °F 30.19 in Calm     93 % 0.00 in 0 W/m2
22:19 28.9 °F 27.2 °F 30.19 in Calm     93 % 0.00 in 0 W/m2
22:20 28.9 °F 27.2 °F 30.19 in Calm     93 % 0.00 in 0 W/m2
22:25 28.9 °F 27.4 °F 30.19 in Calm     94 % 0.00 in 0 W/m2
22:26 28.9 °F 27.2 °F 30.18 in Calm     93 % 0.00 in 0 W/m2
22:27 28.9 °F 27.4 °F 30.19 in Calm     94 % 0.00 in 0 W/m2
22:31 29.1 °F 27.6 °F 30.19 in Calm     94 % 0.00 in 0 W/m2
22:36 29.1 °F 27.6 °F 30.19 in Calm     94 % 0.00 in 0 W/m2
22:42 28.9 °F 27.4 °F 30.19 in Calm     94 % 0.00 in 0 W/m2
22:45 28.8 °F 27.0 °F 30.19 in Calm     93 % 0.00 in 0 W/m2
22:50 28.8 °F 27.3 °F 30.19 in Calm     94 % 0.00 in 0 W/m2
22:54 28.6 °F 27.1 °F 30.19 in Calm     94 % 0.00 in 0 W/m2
22:59 28.4 °F 26.6 °F 30.19 in Calm     93 % 0.00 in 0 W/m2
23:00 28.4 °F 26.6 °F 30.19 in Calm     93 % 0.00 in 0 W/m2
23:05 28.2 °F 26.5 °F 30.19 in Calm     93 % 0.00 in 0 W/m2
23:10 28.4 °F 26.9 °F 30.19 in NW 2.0 mph 4.0 mph 94 % 0.00 in 0 W/m2
23:15 28.9 °F 27.7 °F 30.20 in NNW 2.0 mph 4.0 mph 95 % 0.00 in 0 W/m2
23:20 29.3 °F 28.0 °F 30.20 in Calm     95 % 0.00 in 0 W/m2
23:25 29.1 °F 27.9 °F 30.20 in Calm     95 % 0.00 in 0 W/m2
23:31 28.9 °F 27.4 °F 30.20 in Calm     94 % 0.00 in 0 W/m2
23:32 28.8 °F 27.3 °F 30.20 in Calm     94 % 0.00 in 0 W/m2
23:38 28.6 °F 27.1 °F 30.19 in Calm     94 % 0.00 in 0 W/m2
23:39 28.4 °F 26.9 °F 30.19 in WNW 1.0 mph 4.0 mph 94 % 0.00 in 0 W/m2
23:44 28.0 °F 26.5 °F 30.19 in WNW 1.0 mph 2.0 mph 94 % 0.00 in 0 W/m2
23:45 28.0 °F 26.5 °F 30.20 in Calm   2.0 mph 94 % 0.00 in 0 W/m2
23:50 28.0 °F 26.5 °F 30.19 in Calm   1.0 mph 94 % 0.00 in 0 W/m2
23:51 28.0 °F 26.5 °F 30.19 in Calm   2.0 mph 94 % 0.00 in 0 W/m2
23:56 27.9 °F 26.4 °F 30.20 in WNW 1.0 mph 2.0 mph 94 % 0.00 in 0 W/m2
23:57 27.9 °F 26.4 °F 30.20 in WNW 1.0 mph 2.0 mph 94 % 0.00 in 0 W/m2
Delerius-Weather
Compliments of Weather Underground - 3 mb

Data updates at regular intervals.